sensor_id;sensor_type;location;lat;lon;timestamp;P1;durP1;ratioP1;P2;durP2;ratioP2
11334;SDS011;5722;42.620;23.374;2023-04-01T00:01:07;9.30;;;4.83;;
11334;SDS011;5722;42.620;23.374;2023-04-01T00:03:36;9.63;;;6.13;;
11334;SDS011;5722;42.620;23.374;2023-04-01T00:06:07;10.93;;;7.20;;
11334;SDS011;5722;42.620;23.374;2023-04-01T00:08:38;13.63;;;7.87;;
11334;SDS011;5722;42.620;23.374;2023-04-01T00:11:10;11.10;;;7.20;;
11334;SDS011;5722;42.620;23.374;2023-04-01T00:13:38;9.07;;;6.63;;
11334;SDS011;5722;42.620;23.374;2023-04-01T00:18:55;11.43;;;6.23;;
11334;SDS011;5722;42.620;23.374;2023-04-01T00:21:23;14.97;;;7.00;;
11334;SDS011;5722;42.620;23.374;2023-04-01T00:23:52;11.77;;;6.80;;
11334;SDS011;5722;42.620;23.374;2023-04-01T00:26:26;12.73;;;6.57;;
11334;SDS011;5722;42.620;23.374;2023-04-01T00:28:58;9.37;;;6.07;;
11334;SDS011;5722;42.620;23.374;2023-04-01T00:31:31;10.50;;;6.30;;
11334;SDS011;5722;42.620;23.374;2023-04-01T00:34:14;18.70;;;8.43;;
11334;SDS011;5722;42.620;23.374;2023-04-01T00:36:44;11.73;;;6.20;;
11334;SDS011;5722;42.620;23.374;2023-04-01T00:39:18;12.03;;;5.43;;
11334;SDS011;5722;42.620;23.374;2023-04-01T00:41:51;30.63;;;17.10;;
11334;SDS011;5722;42.620;23.374;2023-04-01T00:44:30;14.83;;;9.07;;
11334;SDS011;5722;42.620;23.374;2023-04-01T00:47:06;17.57;;;8.53;;
11334;SDS011;5722;42.620;23.374;2023-04-01T00:49:39;15.43;;;9.50;;
11334;SDS011;5722;42.620;23.374;2023-04-01T00:52:12;14.83;;;6.47;;
11334;SDS011;5722;42.620;23.374;2023-04-01T00:54:45;13.67;;;6.67;;
11334;SDS011;5722;42.620;23.374;2023-04-01T00:57:23;14.47;;;5.50;;
11334;SDS011;5722;42.620;23.374;2023-04-01T00:59:57;11.63;;;6.40;;
11334;SDS011;5722;42.620;23.374;2023-04-01T01:02:35;11.33;;;6.10;;
11334;SDS011;5722;42.620;23.374;2023-04-01T01:05:12;9.53;;;5.53;;
11334;SDS011;5722;42.620;23.374;2023-04-01T01:07:43;10.70;;;5.30;;
11334;SDS011;5722;42.620;23.374;2023-04-01T01:10:24;11.23;;;4.67;;
11334;SDS011;5722;42.620;23.374;2023-04-01T01:12:57;10.60;;;4.87;;
11334;SDS011;5722;42.620;23.374;2023-04-01T01:15:29;13.03;;;5.10;;
11334;SDS011;5722;42.620;23.374;2023-04-01T01:18:04;11.33;;;5.00;;
11334;SDS011;5722;42.620;23.374;2023-04-01T01:23:28;10.10;;;5.07;;
11334;SDS011;5722;42.620;23.374;2023-04-01T01:26:16;9.17;;;4.40;;
11334;SDS011;5722;42.620;23.374;2023-04-01T01:28:57;10.03;;;4.47;;
11334;SDS011;5722;42.620;23.374;2023-04-01T01:36:50;8.47;;;3.93;;
11334;SDS011;5722;42.620;23.374;2023-04-01T01:39:23;7.83;;;3.60;;
11334;SDS011;5722;42.620;23.374;2023-04-01T01:42:01;8.53;;;4.10;;
11334;SDS011;5722;42.620;23.374;2023-04-01T01:44:36;8.97;;;3.70;;
11334;SDS011;5722;42.620;23.374;2023-04-01T01:47:07;7.20;;;3.77;;
11334;SDS011;5722;42.620;23.374;2023-04-01T01:49:38;5.47;;;3.70;;
11334;SDS011;5722;42.620;23.374;2023-04-01T01:52:16;10.77;;;4.13;;
11334;SDS011;5722;42.620;23.374;2023-04-01T01:54:47;9.23;;;3.80;;
11334;SDS011;5722;42.620;23.374;2023-04-01T01:57:20;8.30;;;3.70;;
11334;SDS011;5722;42.620;23.374;2023-04-01T01:59:48;9.47;;;4.00;;
11334;SDS011;5722;42.620;23.374;2023-04-01T02:02:16;11.27;;;3.80;;
11334;SDS011;5722;42.620;23.374;2023-04-01T02:04:48;7.33;;;3.70;;
11334;SDS011;5722;42.620;23.374;2023-04-01T02:07:21;8.70;;;3.30;;
11334;SDS011;5722;42.620;23.374;2023-04-01T02:09:51;7.70;;;3.20;;
11334;SDS011;5722;42.620;23.374;2023-04-01T02:12:23;7.47;;;3.37;;
11334;SDS011;5722;42.620;23.374;2023-04-01T02:14:57;7.47;;;3.50;;
11334;SDS011;5722;42.620;23.374;2023-04-01T02:17:31;8.23;;;3.33;;
11334;SDS011;5722;42.620;23.374;2023-04-01T02:20:02;7.13;;;3.03;;
11334;SDS011;5722;42.620;23.374;2023-04-01T02:22:39;5.63;;;3.17;;
11334;SDS011;5722;42.620;23.374;2023-04-01T02:25:24;6.03;;;3.20;;
11334;SDS011;5722;42.620;23.374;2023-04-01T02:27:56;8.40;;;3.83;;
11334;SDS011;5722;42.620;23.374;2023-04-01T02:30:41;7.30;;;3.57;;
11334;SDS011;5722;42.620;23.374;2023-04-01T02:33:17;8.67;;;3.70;;
11334;SDS011;5722;42.620;23.374;2023-04-01T02:35:48;6.57;;;3.67;;
11334;SDS011;5722;42.620;23.374;2023-04-01T02:38:26;8.93;;;3.63;;
11334;SDS011;5722;42.620;23.374;2023-04-01T02:44:03;6.80;;;4.27;;
11334;SDS011;5722;42.620;23.374;2023-04-01T02:46:35;8.07;;;3.10;;
11334;SDS011;5722;42.620;23.374;2023-04-01T02:49:07;10.07;;;3.70;;
11334;SDS011;5722;42.620;23.374;2023-04-01T02:51:34;9.53;;;3.70;;
11334;SDS011;5722;42.620;23.374;2023-04-01T02:54:11;8.97;;;3.83;;
11334;SDS011;5722;42.620;23.374;2023-04-01T02:56:51;8.23;;;3.73;;
11334;SDS011;5722;42.620;23.374;2023-04-01T02:59:34;6.20;;;3.03;;
11334;SDS011;5722;42.620;23.374;2023-04-01T03:02:11;5.53;;;3.00;;
11334;SDS011;5722;42.620;23.374;2023-04-01T03:04:43;5.90;;;3.00;;
11334;SDS011;5722;42.620;23.374;2023-04-01T03:07:17;9.97;;;3.10;;
11334;SDS011;5722;42.620;23.374;2023-04-01T03:09:51;5.13;;;3.40;;
11334;SDS011;5722;42.620;23.374;2023-04-01T03:12:24;11.07;;;3.23;;
11334;SDS011;5722;42.620;23.374;2023-04-01T03:14:55;5.30;;;3.47;;
11334;SDS011;5722;42.620;23.374;2023-04-01T03:17:37;8.03;;;3.47;;
11334;SDS011;5722;42.620;23.374;2023-04-01T03:20:06;7.60;;;3.07;;
11334;SDS011;5722;42.620;23.374;2023-04-01T03:22:37;5.27;;;1.70;;
11334;SDS011;5722;42.620;23.374;2023-04-01T03:25:18;13.80;;;3.03;;
11334;SDS011;5722;42.620;23.374;2023-04-01T03:27:49;6.47;;;2.80;;
11334;SDS011;5722;42.620;23.374;2023-04-01T03:30:24;7.17;;;1.90;;
11334;SDS011;5722;42.620;23.374;2023-04-01T03:32:59;7.00;;;1.70;;
11334;SDS011;5722;42.620;23.374;2023-04-01T03:35:32;6.73;;;1.77;;
11334;SDS011;5722;42.620;23.374;2023-04-01T03:38:01;3.13;;;1.80;;
11334;SDS011;5722;42.620;23.374;2023-04-01T03:40:34;4.23;;;1.80;;
11334;SDS011;5722;42.620;23.374;2023-04-01T03:43:05;7.93;;;2.40;;
11334;SDS011;5722;42.620;23.374;2023-04-01T03:45:51;6.43;;;2.33;;
11334;SDS011;5722;42.620;23.374;2023-04-01T03:48:39;4.47;;;2.00;;
11334;SDS011;5722;42.620;23.374;2023-04-01T03:51:13;4.77;;;2.27;;
11334;SDS011;5722;42.620;23.374;2023-04-01T03:53:41;8.70;;;2.20;;
11334;SDS011;5722;42.620;23.374;2023-04-01T03:56:21;4.47;;;1.60;;
11334;SDS011;5722;42.620;23.374;2023-04-01T03:58:53;8.63;;;2.10;;
11334;SDS011;5722;42.620;23.374;2023-04-01T04:01:31;8.30;;;3.50;;
11334;SDS011;5722;42.620;23.374;2023-04-01T04:04:03;8.10;;;4.13;;
11334;SDS011;5722;42.620;23.374;2023-04-01T04:06:53;9.83;;;4.90;;
11334;SDS011;5722;42.620;23.374;2023-04-01T04:09:38;9.00;;;4.73;;
11334;SDS011;5722;42.620;23.374;2023-04-01T04:12:10;9.03;;;4.83;;
11334;SDS011;5722;42.620;23.374;2023-04-01T04:14:39;8.33;;;4.90;;
11334;SDS011;5722;42.620;23.374;2023-04-01T04:17:10;9.27;;;4.70;;
11334;SDS011;5722;42.620;23.374;2023-04-01T04:20:06;10.10;;;4.77;;
11334;SDS011;5722;42.620;23.374;2023-04-01T04:22:41;6.93;;;4.30;;
11334;SDS011;5722;42.620;23.374;2023-04-01T04:25:20;6.43;;;4.13;;
11334;SDS011;5722;42.620;23.374;2023-04-01T04:36:29;11.33;;;3.73;;
11334;SDS011;5722;42.620;23.374;2023-04-01T04:39:00;6.97;;;3.50;;
11334;SDS011;5722;42.620;23.374;2023-04-01T04:41:33;8.63;;;3.37;;
11334;SDS011;5722;42.620;23.374;2023-04-01T04:44:09;5.57;;;3.33;;
11334;SDS011;5722;42.620;23.374;2023-04-01T04:46:41;8.67;;;4.40;;
11334;SDS011;5722;42.620;23.374;2023-04-01T04:49:13;6.87;;;3.80;;
11334;SDS011;5722;42.620;23.374;2023-04-01T04:51:57;6.30;;;3.13;;
11334;SDS011;5722;42.620;23.374;2023-04-01T04:54:33;6.57;;;2.57;;
11334;SDS011;5722;42.620;23.374;2023-04-01T04:57:07;6.07;;;2.60;;
11334;SDS011;5722;42.620;23.374;2023-04-01T04:59:56;6.87;;;2.63;;
11334;SDS011;5722;42.620;23.374;2023-04-01T05:02:27;5.47;;;2.00;;
11334;SDS011;5722;42.620;23.374;2023-04-01T05:05:00;6.03;;;1.60;;
11334;SDS011;5722;42.620;23.374;2023-04-01T05:07:51;9.23;;;2.23;;
11334;SDS011;5722;42.620;23.374;2023-04-01T05:10:24;11.90;;;4.03;;
11334;SDS011;5722;42.620;23.374;2023-04-01T05:13:00;9.23;;;4.00;;
11334;SDS011;5722;42.620;23.374;2023-04-01T05:15:36;7.10;;;4.30;;
11334;SDS011;5722;42.620;23.374;2023-04-01T05:18:11;8.37;;;4.70;;
11334;SDS011;5722;42.620;23.374;2023-04-01T05:20:47;9.63;;;4.70;;
11334;SDS011;5722;42.620;23.374;2023-04-01T05:26:03;10.77;;;5.37;;
11334;SDS011;5722;42.620;23.374;2023-04-01T05:28:36;12.60;;;5.00;;
11334;SDS011;5722;42.620;23.374;2023-04-01T05:31:11;15.40;;;5.50;;
11334;SDS011;5722;42.620;23.374;2023-04-01T05:33:52;10.33;;;5.83;;
11334;SDS011;5722;42.620;23.374;2023-04-01T05:36:37;11.90;;;5.90;;
11334;SDS011;5722;42.620;23.374;2023-04-01T05:39:13;9.33;;;5.73;;
11334;SDS011;5722;42.620;23.374;2023-04-01T05:41:53;10.97;;;6.23;;
11334;SDS011;5722;42.620;23.374;2023-04-01T05:44:25;13.50;;;6.10;;
11334;SDS011;5722;42.620;23.374;2023-04-01T05:47:05;17.37;;;6.70;;
11334;SDS011;5722;42.620;23.374;2023-04-01T05:49:49;11.37;;;6.47;;
11334;SDS011;5722;42.620;23.374;2023-04-01T05:52:23;10.70;;;6.53;;
11334;SDS011;5722;42.620;23.374;2023-04-01T05:55:06;15.20;;;6.77;;
11334;SDS011;5722;42.620;23.374;2023-04-01T05:57:59;16.97;;;6.37;;
11334;SDS011;5722;42.620;23.374;2023-04-01T06:00:28;12.53;;;4.80;;
11334;SDS011;5722;42.620;23.374;2023-04-01T06:03:06;9.57;;;4.50;;
11334;SDS011;5722;42.620;23.374;2023-04-01T06:05:43;9.77;;;5.40;;
11334;SDS011;5722;42.620;23.374;2023-04-01T06:22:25;11.13;;;4.40;;
11334;SDS011;5722;42.620;23.374;2023-04-01T06:25:00;9.60;;;4.23;;
11334;SDS011;5722;42.620;23.374;2023-04-01T06:27:40;13.27;;;5.03;;
11334;SDS011;5722;42.620;23.374;2023-04-01T06:30:37;9.23;;;4.80;;
11334;SDS011;5722;42.620;23.374;2023-04-01T06:33:29;11.17;;;4.40;;
11334;SDS011;5722;42.620;23.374;2023-04-01T06:36:10;8.27;;;4.90;;
11334;SDS011;5722;42.620;23.374;2023-04-01T07:03:36;8.10;;;4.80;;
11334;SDS011;5722;42.620;23.374;2023-04-01T07:08:59;10.70;;;5.33;;
11334;SDS011;5722;42.620;23.374;2023-04-01T07:11:41;19.90;;;4.87;;
11334;SDS011;5722;42.620;23.374;2023-04-01T07:14:24;10.43;;;4.73;;
11334;SDS011;5722;42.620;23.374;2023-04-01T07:16:56;8.07;;;4.67;;
11334;SDS011;5722;42.620;23.374;2023-04-01T07:22:39;11.60;;;5.00;;
11334;SDS011;5722;42.620;23.374;2023-04-01T07:25:27;9.17;;;5.33;;
11334;SDS011;5722;42.620;23.374;2023-04-01T07:31:13;12.80;;;5.53;;
11334;SDS011;5722;42.620;23.374;2023-04-01T07:33:49;13.80;;;5.73;;
11334;SDS011;5722;42.620;23.374;2023-04-01T07:36:30;7.50;;;5.00;;
11334;SDS011;5722;42.620;23.374;2023-04-01T07:48:15;10.03;;;6.00;;
11334;SDS011;5722;42.620;23.374;2023-04-01T07:50:58;12.33;;;5.13;;
11334;SDS011;5722;42.620;23.374;2023-04-01T07:53:36;21.23;;;5.53;;
11334;SDS011;5722;42.620;23.374;2023-04-01T07:56:18;12.23;;;5.47;;
11334;SDS011;5722;42.620;23.374;2023-04-01T07:58:59;18.20;;;5.70;;
11334;SDS011;5722;42.620;23.374;2023-04-01T08:02:05;8.63;;;5.43;;
11334;SDS011;5722;42.620;23.374;2023-04-01T08:04:44;7.83;;;4.80;;
11334;SDS011;5722;42.620;23.374;2023-04-01T08:07:33;17.23;;;5.60;;
11334;SDS011;5722;42.620;23.374;2023-04-01T08:10:11;11.40;;;5.10;;
11334;SDS011;5722;42.620;23.374;2023-04-01T08:12:44;14.17;;;5.17;;
11334;SDS011;5722;42.620;23.374;2023-04-01T08:15:17;11.90;;;4.57;;
11334;SDS011;5722;42.620;23.374;2023-04-01T08:23:46;15.53;;;5.60;;
11334;SDS011;5722;42.620;23.374;2023-04-01T08:26:17;15.33;;;5.07;;
11334;SDS011;5722;42.620;23.374;2023-04-01T08:28:57;10.90;;;4.80;;
11334;SDS011;5722;42.620;23.374;2023-04-01T08:31:35;12.83;;;5.37;;
11334;SDS011;5722;42.620;23.374;2023-04-01T08:34:16;13.37;;;5.10;;
11334;SDS011;5722;42.620;23.374;2023-04-01T08:36:48;15.50;;;4.80;;
11334;SDS011;5722;42.620;23.374;2023-04-01T08:39:31;9.63;;;4.77;;
11334;SDS011;5722;42.620;23.374;2023-04-01T08:45:18;10.73;;;4.50;;
11334;SDS011;5722;42.620;23.374;2023-04-01T08:48:13;9.77;;;4.60;;
11334;SDS011;5722;42.620;23.374;2023-04-01T08:54:02;8.53;;;4.20;;
11334;SDS011;5722;42.620;23.374;2023-04-01T08:56:46;8.47;;;4.77;;
11334;SDS011;5722;42.620;23.374;2023-04-01T09:02:26;10.57;;;3.90;;
11334;SDS011;5722;42.620;23.374;2023-04-01T09:11:12;13.18;;;3.50;;
11334;SDS011;5722;42.620;23.374;2023-04-01T09:22:40;8.30;;;3.38;;
11334;SDS011;5722;42.620;23.374;2023-04-01T09:25:38;9.43;;;3.72;;
11334;SDS011;5722;42.620;23.374;2023-04-01T09:28:16;7.20;;;3.50;;
11334;SDS011;5722;42.620;23.374;2023-04-01T09:30:56;12.32;;;3.53;;
11334;SDS011;5722;42.620;23.374;2023-04-01T09:36:35;16.38;;;4.25;;
11334;SDS011;5722;42.620;23.374;2023-04-01T09:39:17;9.82;;;3.60;;
11334;SDS011;5722;42.620;23.374;2023-04-01T09:42:05;10.48;;;3.97;;
11334;SDS011;5722;42.620;23.374;2023-04-01T09:44:34;6.47;;;3.40;;
11334;SDS011;5722;42.620;23.374;2023-04-01T09:47:20;11.00;;;3.50;;
11334;SDS011;5722;42.620;23.374;2023-04-01T09:49:55;10.25;;;3.85;;
11334;SDS011;5722;42.620;23.374;2023-04-01T09:52:29;7.35;;;3.38;;
11334;SDS011;5722;42.620;23.374;2023-04-01T10:01:01;10.55;;;3.75;;
11334;SDS011;5722;42.620;23.374;2023-04-01T10:09:33;8.93;;;4.05;;
11334;SDS011;5722;42.620;23.374;2023-04-01T10:18:01;8.65;;;3.80;;
11334;SDS011;5722;42.620;23.374;2023-04-01T10:26:40;5.97;;;3.42;;
11334;SDS011;5722;42.620;23.374;2023-04-01T10:32:22;8.57;;;3.85;;
11334;SDS011;5722;42.620;23.374;2023-04-01T10:35:24;8.43;;;3.75;;
11334;SDS011;5722;42.620;23.374;2023-04-01T10:44:13;10.25;;;3.70;;
11334;SDS011;5722;42.620;23.374;2023-04-01T10:47:19;12.85;;;3.22;;
11334;SDS011;5722;42.620;23.374;2023-04-01T10:50:10;5.25;;;2.63;;
11334;SDS011;5722;42.620;23.374;2023-04-01T11:04:47;9.40;;;2.42;;
11334;SDS011;5722;42.620;23.374;2023-04-01T11:07:51;4.75;;;2.22;;
11334;SDS011;5722;42.620;23.374;2023-04-01T11:10:45;6.43;;;2.08;;
11334;SDS011;5722;42.620;23.374;2023-04-01T11:13:49;6.25;;;1.83;;
11334;SDS011;5722;42.620;23.374;2023-04-01T11:19:45;4.50;;;1.80;;
11334;SDS011;5722;42.620;23.374;2023-04-01T11:22:24;9.15;;;2.10;;
11334;SDS011;5722;42.620;23.374;2023-04-01T11:25:09;5.13;;;1.83;;
11334;SDS011;5722;42.620;23.374;2023-04-01T11:27:46;12.43;;;2.63;;
11334;SDS011;5722;42.620;23.374;2023-04-01T11:30:23;5.30;;;1.90;;
11334;SDS011;5722;42.620;23.374;2023-04-01T11:33:05;9.05;;;2.20;;
11334;SDS011;5722;42.620;23.374;2023-04-01T11:35:49;5.63;;;1.80;;
11334;SDS011;5722;42.620;23.374;2023-04-01T11:50:38;7.90;;;2.47;;
11334;SDS011;5722;42.620;23.374;2023-04-01T11:53:13;9.27;;;2.40;;
11334;SDS011;5722;42.620;23.374;2023-04-01T13:22:41;8.20;;;5.27;;
11334;SDS011;5722;42.620;23.374;2023-04-01T13:28:37;5.33;;;4.30;;
11334;SDS011;5722;42.620;23.374;2023-04-01T13:31:09;8.73;;;4.57;;
11334;SDS011;5722;42.620;23.374;2023-04-01T13:55:15;4.17;;;1.93;;
11334;SDS011;5722;42.620;23.374;2023-04-01T14:04:16;3.47;;;1.70;;
11334;SDS011;5722;42.620;23.374;2023-04-01T14:10:04;2.13;;;1.50;;
11334;SDS011;5722;42.620;23.374;2023-04-01T14:12:49;3.80;;;2.43;;
11334;SDS011;5722;42.620;23.374;2023-04-01T14:18:41;5.97;;;4.00;;
11334;SDS011;5722;42.620;23.374;2023-04-01T14:21:25;5.70;;;3.93;;
11334;SDS011;5722;42.620;23.374;2023-04-01T14:27:11;7.57;;;3.70;;
11334;SDS011;5722;42.620;23.374;2023-04-01T14:29:59;5.20;;;3.80;;
11334;SDS011;5722;42.620;23.374;2023-04-01T14:32:45;8.53;;;3.77;;
11334;SDS011;5722;42.620;23.374;2023-04-01T14:35:31;6.80;;;3.63;;
11334;SDS011;5722;42.620;23.374;2023-04-01T14:41:19;5.10;;;3.47;;
11334;SDS011;5722;42.620;23.374;2023-04-01T14:44:01;8.93;;;3.17;;
11334;SDS011;5722;42.620;23.374;2023-04-01T14:49:34;5.33;;;2.90;;
11334;SDS011;5722;42.620;23.374;2023-04-01T14:52:05;5.63;;;3.17;;
11334;SDS011;5722;42.620;23.374;2023-04-01T14:55:15;6.30;;;3.20;;
11334;SDS011;5722;42.620;23.374;2023-04-01T15:00:45;4.97;;;2.60;;
11334;SDS011;5722;42.620;23.374;2023-04-01T15:03:32;4.63;;;2.60;;
11334;SDS011;5722;42.620;23.374;2023-04-01T15:08:51;6.57;;;2.80;;
11334;SDS011;5722;42.620;23.374;2023-04-01T15:11:51;7.43;;;2.43;;
11334;SDS011;5722;42.620;23.374;2023-04-01T15:14:29;4.40;;;2.60;;
11334;SDS011;5722;42.620;23.374;2023-04-01T15:17:22;3.90;;;2.53;;
11334;SDS011;5722;42.620;23.374;2023-04-01T15:23:15;5.90;;;2.70;;
11334;SDS011;5722;42.620;23.374;2023-04-01T15:31:29;4.53;;;2.70;;
11334;SDS011;5722;42.620;23.374;2023-04-01T15:34:11;3.57;;;2.60;;
11334;SDS011;5722;42.620;23.374;2023-04-01T15:36:52;3.47;;;2.30;;
11334;SDS011;5722;42.620;23.374;2023-04-01T15:39:24;5.57;;;2.70;;
11334;SDS011;5722;42.620;23.374;2023-04-01T15:42:23;4.67;;;3.00;;
11334;SDS011;5722;42.620;23.374;2023-04-01T15:45:07;5.20;;;3.10;;
11334;SDS011;5722;42.620;23.374;2023-04-01T15:48:10;6.53;;;3.30;;
11334;SDS011;5722;42.620;23.374;2023-04-01T15:50:53;3.57;;;3.00;;
11334;SDS011;5722;42.620;23.374;2023-04-01T15:56:12;6.13;;;3.63;;
11334;SDS011;5722;42.620;23.374;2023-04-01T15:58:49;2.67;;;1.30;;
11334;SDS011;5722;42.620;23.374;2023-04-01T16:01:38;2.10;;;1.20;;
11334;SDS011;5722;42.620;23.374;2023-04-01T16:04:25;2.53;;;1.40;;
11334;SDS011;5722;42.620;23.374;2023-04-01T16:07:03;3.93;;;1.97;;
11334;SDS011;5722;42.620;23.374;2023-04-01T16:09:53;2.50;;;2.00;;
11334;SDS011;5722;42.620;23.374;2023-04-01T16:12:39;3.17;;;1.70;;
11334;SDS011;5722;42.620;23.374;2023-04-01T16:15:14;2.63;;;1.63;;
11334;SDS011;5722;42.620;23.374;2023-04-01T16:17:58;4.17;;;2.07;;
11334;SDS011;5722;42.620;23.374;2023-04-01T16:20:43;4.50;;;1.90;;
11334;SDS011;5722;42.620;23.374;2023-04-01T16:23:16;3.27;;;1.80;;
11334;SDS011;5722;42.620;23.374;2023-04-01T16:25:49;2.83;;;1.80;;
11334;SDS011;5722;42.620;23.374;2023-04-01T16:28:34;2.43;;;1.83;;
11334;SDS011;5722;42.620;23.374;2023-04-01T16:31:12;2.60;;;1.80;;
11334;SDS011;5722;42.620;23.374;2023-04-01T16:33:46;1.90;;;1.80;;
11334;SDS011;5722;42.620;23.374;2023-04-01T16:36:26;2.30;;;2.10;;
11334;SDS011;5722;42.620;23.374;2023-04-01T16:39:06;3.90;;;1.77;;
11334;SDS011;5722;42.620;23.374;2023-04-01T16:41:42;1.73;;;1.63;;
11334;SDS011;5722;42.620;23.374;2023-04-01T16:44:18;1.87;;;1.70;;
11334;SDS011;5722;42.620;23.374;2023-04-01T16:47:07;2.10;;;1.90;;
11334;SDS011;5722;42.620;23.374;2023-04-01T16:49:40;2.10;;;1.73;;
11334;SDS011;5722;42.620;23.374;2023-04-01T16:52:17;2.67;;;2.20;;
11334;SDS011;5722;42.620;23.374;2023-04-01T16:57:58;2.57;;;1.90;;
11334;SDS011;5722;42.620;23.374;2023-04-01T17:00:30;2.60;;;2.30;;
11334;SDS011;5722;42.620;23.374;2023-04-01T17:03:20;2.63;;;2.43;;
11334;SDS011;5722;42.620;23.374;2023-04-01T17:05:54;4.17;;;2.90;;
11334;SDS011;5722;42.620;23.374;2023-04-01T17:08:39;2.53;;;2.33;;
11334;SDS011;5722;42.620;23.374;2023-04-01T17:11:10;2.70;;;2.33;;
11334;SDS011;5722;42.620;23.374;2023-04-01T17:13:54;2.10;;;1.90;;
11334;SDS011;5722;42.620;23.374;2023-04-01T17:16:54;2.17;;;1.90;;
11334;SDS011;5722;42.620;23.374;2023-04-01T17:19:32;2.70;;;2.00;;
11334;SDS011;5722;42.620;23.374;2023-04-01T17:22:11;1.90;;;1.70;;
11334;SDS011;5722;42.620;23.374;2023-04-01T17:25:08;1.70;;;1.60;;
11334;SDS011;5722;42.620;23.374;2023-04-01T17:27:55;1.43;;;1.33;;
11334;SDS011;5722;42.620;23.374;2023-04-01T17:30:37;2.60;;;2.00;;
11334;SDS011;5722;42.620;23.374;2023-04-01T17:33:19;3.23;;;2.83;;
11334;SDS011;5722;42.620;23.374;2023-04-01T17:35:56;5.53;;;3.90;;
11334;SDS011;5722;42.620;23.374;2023-04-01T17:38:39;2.47;;;2.03;;
11334;SDS011;5722;42.620;23.374;2023-04-01T17:41:17;2.13;;;1.80;;
11334;SDS011;5722;42.620;23.374;2023-04-01T17:43:50;1.80;;;1.70;;
11334;SDS011;5722;42.620;23.374;2023-04-01T17:46:26;3.23;;;1.63;;
11334;SDS011;5722;42.620;23.374;2023-04-01T17:49:02;2.23;;;2.03;;
11334;SDS011;5722;42.620;23.374;2023-04-01T17:51:38;2.07;;;1.90;;
11334;SDS011;5722;42.620;23.374;2023-04-01T17:54:23;2.30;;;2.10;;
11334;SDS011;5722;42.620;23.374;2023-04-01T17:57:07;2.47;;;2.23;;
11334;SDS011;5722;42.620;23.374;2023-04-01T17:59:38;2.87;;;2.40;;
11334;SDS011;5722;42.620;23.374;2023-04-01T18:02:15;2.60;;;2.40;;
11334;SDS011;5722;42.620;23.374;2023-04-01T18:07:51;2.40;;;2.10;;
11334;SDS011;5722;42.620;23.374;2023-04-01T18:10:40;2.90;;;2.30;;
11334;SDS011;5722;42.620;23.374;2023-04-01T18:16:14;2.10;;;1.97;;
11334;SDS011;5722;42.620;23.374;2023-04-01T18:18:48;2.00;;;1.80;;
11334;SDS011;5722;42.620;23.374;2023-04-01T18:21:19;1.97;;;1.87;;
11334;SDS011;5722;42.620;23.374;2023-04-01T18:23:52;2.50;;;2.23;;
11334;SDS011;5722;42.620;23.374;2023-04-01T18:26:29;4.40;;;4.00;;
11334;SDS011;5722;42.620;23.374;2023-04-01T18:29:13;3.40;;;2.70;;
11334;SDS011;5722;42.620;23.374;2023-04-01T18:32:00;3.47;;;3.17;;
11334;SDS011;5722;42.620;23.374;2023-04-01T18:34:43;3.97;;;3.10;;
11334;SDS011;5722;42.620;23.374;2023-04-01T18:37:28;4.17;;;3.77;;
11334;SDS011;5722;42.620;23.374;2023-04-01T18:40:16;4.03;;;3.57;;
11334;SDS011;5722;42.620;23.374;2023-04-01T18:42:53;4.27;;;3.87;;
11334;SDS011;5722;42.620;23.374;2023-04-01T18:45:41;4.07;;;3.67;;
11334;SDS011;5722;42.620;23.374;2023-04-01T18:59:42;3.30;;;3.00;;
11334;SDS011;5722;42.620;23.374;2023-04-01T19:02:19;2.60;;;2.40;;
11334;SDS011;5722;42.620;23.374;2023-04-01T19:04:59;3.13;;;2.70;;
11334;SDS011;5722;42.620;23.374;2023-04-01T19:07:48;2.40;;;2.20;;
11334;SDS011;5722;42.620;23.374;2023-04-01T19:10:21;33.13;;;20.03;;
11334;SDS011;5722;42.620;23.374;2023-04-01T19:12:59;4.77;;;4.00;;
11334;SDS011;5722;42.620;23.374;2023-04-01T19:21:23;6.50;;;5.77;;
11334;SDS011;5722;42.620;23.374;2023-04-01T19:26:51;8.10;;;7.30;;
11334;SDS011;5722;42.620;23.374;2023-04-01T19:29:35;8.60;;;6.40;;
11334;SDS011;5722;42.620;23.374;2023-04-01T19:32:15;6.03;;;5.43;;
11334;SDS011;5722;42.620;23.374;2023-04-01T19:34:57;6.93;;;6.03;;
11334;SDS011;5722;42.620;23.374;2023-04-01T19:37:54;7.00;;;6.30;;
11334;SDS011;5722;42.620;23.374;2023-04-01T19:43:33;3.17;;;2.97;;
11334;SDS011;5722;42.620;23.374;2023-04-01T19:46:11;1.80;;;1.70;;
11334;SDS011;5722;42.620;23.374;2023-04-01T19:49:00;1.90;;;1.80;;
11334;SDS011;5722;42.620;23.374;2023-04-01T19:51:45;1.70;;;1.60;;
11334;SDS011;5722;42.620;23.374;2023-04-01T19:54:24;1.70;;;1.60;;
11334;SDS011;5722;42.620;23.374;2023-04-01T19:57:16;2.63;;;1.80;;
11334;SDS011;5722;42.620;23.374;2023-04-01T20:00:03;1.93;;;1.70;;
11334;SDS011;5722;42.620;23.374;2023-04-01T20:03:03;1.60;;;1.50;;
11334;SDS011;5722;42.620;23.374;2023-04-01T20:05:42;1.70;;;1.60;;
11334;SDS011;5722;42.620;23.374;2023-04-01T20:08:21;2.10;;;1.90;;
11334;SDS011;5722;42.620;23.374;2023-04-01T20:11:01;2.13;;;2.00;;
11334;SDS011;5722;42.620;23.374;2023-04-01T20:13:46;2.00;;;1.90;;
11334;SDS011;5722;42.620;23.374;2023-04-01T20:16:37;1.70;;;1.60;;
11334;SDS011;5722;42.620;23.374;2023-04-01T20:19:20;2.87;;;1.80;;
11334;SDS011;5722;42.620;23.374;2023-04-01T20:22:00;1.77;;;1.67;;
11334;SDS011;5722;42.620;23.374;2023-04-01T20:24:45;1.70;;;1.60;;
11334;SDS011;5722;42.620;23.374;2023-04-01T20:27:37;1.90;;;1.80;;
11334;SDS011;5722;42.620;23.374;2023-04-01T20:30:19;1.73;;;1.63;;
11334;SDS011;5722;42.620;23.374;2023-04-01T20:33:08;1.60;;;1.50;;
11334;SDS011;5722;42.620;23.374;2023-04-01T20:35:57;1.57;;;1.47;;
11334;SDS011;5722;42.620;23.374;2023-04-01T20:38:48;2.23;;;1.63;;
11334;SDS011;5722;42.620;23.374;2023-04-01T20:41:26;1.93;;;1.43;;
11334;SDS011;5722;42.620;23.374;2023-04-01T20:44:10;1.60;;;1.50;;
11334;SDS011;5722;42.620;23.374;2023-04-01T20:49:53;1.40;;;1.30;;
11334;SDS011;5722;42.620;23.374;2023-04-01T20:52:29;1.40;;;1.30;;
11334;SDS011;5722;42.620;23.374;2023-04-01T20:55:07;1.50;;;1.30;;
11334;SDS011;5722;42.620;23.374;2023-04-01T20:57:51;2.60;;;1.97;;
11334;SDS011;5722;42.620;23.374;2023-04-01T21:03:29;2.00;;;1.80;;
11334;SDS011;5722;42.620;23.374;2023-04-01T21:09:10;2.37;;;1.60;;
11334;SDS011;5722;42.620;23.374;2023-04-01T21:11:49;2.63;;;1.50;;
11334;SDS011;5722;42.620;23.374;2023-04-01T21:14:28;1.93;;;1.53;;
11334;SDS011;5722;42.620;23.374;2023-04-01T21:20:10;2.93;;;1.60;;
11334;SDS011;5722;42.620;23.374;2023-04-01T21:22:44;1.73;;;1.50;;
11334;SDS011;5722;42.620;23.374;2023-04-01T21:25:20;1.50;;;1.40;;
11334;SDS011;5722;42.620;23.374;2023-04-01T21:27:54;1.70;;;1.60;;
11334;SDS011;5722;42.620;23.374;2023-04-01T21:30:35;1.60;;;1.50;;
11334;SDS011;5722;42.620;23.374;2023-04-01T21:33:21;2.70;;;1.77;;
11334;SDS011;5722;42.620;23.374;2023-04-01T21:35:55;1.60;;;1.50;;
11334;SDS011;5722;42.620;23.374;2023-04-01T21:38:32;2.77;;;1.40;;
11334;SDS011;5722;42.620;23.374;2023-04-01T21:41:08;2.10;;;1.40;;
11334;SDS011;5722;42.620;23.374;2023-04-01T21:43:44;1.50;;;1.20;;
11334;SDS011;5722;42.620;23.374;2023-04-01T21:46:26;1.10;;;1.10;;
11334;SDS011;5722;42.620;23.374;2023-04-01T21:49:09;1.27;;;1.10;;
11334;SDS011;5722;42.620;23.374;2023-04-01T21:57:22;1.47;;;1.10;;
11334;SDS011;5722;42.620;23.374;2023-04-01T22:00:08;1.47;;;1.30;;
11334;SDS011;5722;42.620;23.374;2023-04-01T22:05:40;1.03;;;1.03;;
11334;SDS011;5722;42.620;23.374;2023-04-01T22:08:21;2.03;;;1.10;;
11334;SDS011;5722;42.620;23.374;2023-04-01T22:10:54;1.30;;;1.20;;
11334;SDS011;5722;42.620;23.374;2023-04-01T22:13:28;2.63;;;1.27;;
11334;SDS011;5722;42.620;23.374;2023-04-01T22:16:00;1.40;;;1.30;;